Spirit Of New York — WCW9332 — position and weather

sailwx.info

Track history (hours):
 
Tides and Currents Weather Stations Pressure Air Temp Water Temp Dewpoint Dewpoint Depression Visibility Wind Speed Wind Dir Waves Ship Positions

Spirit Of New York

Owner: SPIRIT CRUISES LLC, NEW YORK, NY. More information available from US FCC via Universal Licensing System and Coast Guard Vessel Documentation Center.

Last reported at 2015-Jan-13 13:18 UTC. Time now 2015-Jan-28 22:16 UTC.
Position N 41°24' W 071°04'.
Warning: this ship's position is 15 days out of date.

Length 62 m.

Type: Passenger vessel. MMSI: 338897000.

Date/timePositionNaut miles runAvg speedWind from/ knotsBaromVisibWave heightAir tempDewpointWater temp
2015-Jan-13 13:18N 41°24' W 071°04'7 9.3
2015-Jan-13 12:33N 41°22' W 071°13'9 9.0
2015-Jan-13 11:33N 41°17' W 071°23'9 8.7
2015-Jan-13 10:33N 41°16' W 071°34'9 9.1
2015-Jan-13 09:33N 41°15' W 071°46'9 8.7
2015-Jan-13 08:33N 41°14' W 071°58'9 8.7
2015-Jan-13 07:33N 41°14' W 072°09'8 8.5
2015-Jan-13 06:34N 41°12' W 072°20'8 8.1
2015-Jan-13 05:33N 41°10' W 072°31'9 9.1
2015-Jan-13 04:33N 41°10' W 072°43'10 9.6
2015-Jan-13 03:33N 41°09' W 072°56'10 9.6
2015-Jan-13 02:34N 41°07' W 073°08'10 9.9
2015-Jan-13 01:33N 41°02' W 073°20'1010.0
2015-Jan-13 00:34N 40°59' W 073°32'13 9.8
2015-Jan-12 23:15N 40°51' W 073°45'8 7.5
2015-Jan-12 22:09N 40°47' W 073°55'4 6.0
2015-Jan-12 21:33N 40°44' W 073°58'4 3.7
2015-Jan-12 20:33N 40°43' W 074°02'2 1.5
2015-Jan-12 19:33N 40°44' W 074°01'1 0.1
2015-Jan-11 21:31N 40°45' W 074°01'0 0.1
2015-Jan-11 20:07N 40°45' W 074°01'0 0.0
2015-Jan-11 19:05N 40°45' W 074°01'0 0.0
2015-Jan-11 18:10N 40°45' W 074°01'1 0.1
2015-Jan-11 02:33N 40°44' W 074°01'2 2.1
2015-Jan-11 01:33N 40°42' W 074°00'3 2.6
2015-Jan-11 00:15N 40°45' W 074°01'0 0.7
2015-Jan-10 23:33N 40°45' W 074°01'1 0.0
2015-Jan-09 02:32N 40°44' W 074°01'2 2.5
2015-Jan-09 01:33N 40°42' W 074°01'4 3.5
2015-Jan-09 00:29N 40°45' W 074°01'  
2015-Jan-05 18:33N 40°44' W 074°01'1 1.3
2015-Jan-05 17:33N 40°43' W 074°02'0 0.0
2015-Jan-05 16:33N 40°43' W 074°02'2 0.1
2015-Jan-05 02:33N 40°44' W 074°01'3 2.5
2015-Jan-05 01:33N 40°42' W 074°01'3 2.9
2015-Jan-05 00:32N 40°45' W 074°01'1 0.0
2015-Jan-04 02:33N 40°44' W 074°01'2 2.3
2015-Jan-04 01:33N 40°42' W 074°01'3 3.0
2015-Jan-04 00:30N 40°45' W 074°01'  
Track history (hours):
 
Tides and Currents Weather Stations Pressure Air Temp Water Temp Dewpoint Dewpoint Depression Visibility Wind Speed Wind Dir Waves Ship Positions

Spirit Of New York

Owner: SPIRIT CRUISES LLC, NEW YORK, NY. More information available from US FCC via Universal Licensing System and Coast Guard Vessel Documentation Center.

Last reported at 2015-Jan-13 13:18 UTC. Time now 2015-Jan-28 22:16 UTC.
Position N 41°24' W 071°04'.
Warning: this ship's position is 15 days out of date.

Length 62 m.

Type: Passenger vessel. MMSI: 338897000.

Date/timePositionNaut miles runAvg speedWind from/ knotsBaromVisibWave heightAir tempDewpointWater temp
2015-Jan-13 13:18N 41°24' W 071°04'7 9.3
2015-Jan-13 12:33N 41°22' W 071°13'9 9.0
2015-Jan-13 11:33N 41°17' W 071°23'9 8.7
2015-Jan-13 10:33N 41°16' W 071°34'9 9.1
2015-Jan-13 09:33N 41°15' W 071°46'9 8.7
2015-Jan-13 08:33N 41°14' W 071°58'9 8.7
2015-Jan-13 07:33N 41°14' W 072°09'8 8.5
2015-Jan-13 06:34N 41°12' W 072°20'8 8.1
2015-Jan-13 05:33N 41°10' W 072°31'9 9.1
2015-Jan-13 04:33N 41°10' W 072°43'10 9.6
2015-Jan-13 03:33N 41°09' W 072°56'10 9.6
2015-Jan-13 02:34N 41°07' W 073°08'10 9.9
2015-Jan-13 01:33N 41°02' W 073°20'1010.0
2015-Jan-13 00:34N 40°59' W 073°32'13 9.8
2015-Jan-12 23:15N 40°51' W 073°45'8 7.5
2015-Jan-12 22:09N 40°47' W 073°55'4 6.0
2015-Jan-12 21:33N 40°44' W 073°58'4 3.7
2015-Jan-12 20:33N 40°43' W 074°02'2 1.5
2015-Jan-12 19:33N 40°44' W 074°01'1 0.1
2015-Jan-11 21:31N 40°45' W 074°01'0 0.1
2015-Jan-11 20:07N 40°45' W 074°01'0 0.0
2015-Jan-11 19:05N 40°45' W 074°01'0 0.0
2015-Jan-11 18:10N 40°45' W 074°01'1 0.1
2015-Jan-11 02:33N 40°44' W 074°01'2 2.1
2015-Jan-11 01:33N 40°42' W 074°00'3 2.6
2015-Jan-11 00:15N 40°45' W 074°01'0 0.7
2015-Jan-10 23:33N 40°45' W 074°01'1 0.0
2015-Jan-09 02:32N 40°44' W 074°01'2 2.5
2015-Jan-09 01:33N 40°42' W 074°01'4 3.5
2015-Jan-09 00:29N 40°45' W 074°01'  
2015-Jan-05 18:33N 40°44' W 074°01'1 1.3
2015-Jan-05 17:33N 40°43' W 074°02'0 0.0
2015-Jan-05 16:33N 40°43' W 074°02'2 0.1
2015-Jan-05 02:33N 40°44' W 074°01'3 2.5
2015-Jan-05 01:33N 40°42' W 074°01'3 2.9
2015-Jan-05 00:32N 40°45' W 074°01'1 0.0
2015-Jan-04 02:33N 40°44' W 074°01'2 2.3
2015-Jan-04 01:33N 40°42' W 074°01'3 3.0
2015-Jan-04 00:30N 40°45' W 074°01'  

Dump ship's entire track history